EGHH/BOH METAR and TAF weather

Enter ICAO airport designator
Station Type Date Time Source
EGHH METAR 2019/07/18 11:20 UTC NOAA

EGHH 181120Z 30012KT 9999 SCT033 22/12 Q1011


Station Type Date Time Source
EGHH Decoded METAR 2019/07/18 11:20 UTC NOAA

Bournemouth Airport, United Kingdom (EGHH) 50-47N 001-50W 0M
Jul 18, 2019 - 07:20 AM EDT / 2019.07.18 1120 UTC
Wind: from the WNW (300 degrees) at 14 MPH (12 KT):0
Visibility: greater than 7 mile(s):0
Sky conditions: partly cloudy
Temperature: 71 F (22 C)
Dew Point: 53 F (12 C)
Relative Humidity: 53%
Pressure (altimeter): 29.85 in. Hg (1011 hPa)
ob: EGHH 181120Z 30012KT 9999 SCT033 22/12 Q1011
cycle: 11

Station Type Date Time Source
EGHH TAF 2013/12/01 21:21 UTC NOAA

TAF TAF EGHH 010016Z 3021/0106 CNL

Example: see airport list